메인 페이지
METAR-TAF:

METAR-TAF

공항 :

Punta Arenas, 칠레

위도: 53-00S, 경도: 070-51W, 고도: 37m

현재 날씨관측

예보는 53분 전, 02:00시(UTC)에 발표되었습니다.
북서8kt
온도 11°C
습도 76%
기압 999 hPa
시정 10km 이상
고도 4900ft 상공 구름 보통
고도 6800ft 상공 흐림
약한비

METAR: SCCI 130200Z 31008KT 9999 -RA SCT049 OVC068 11/07 Q0999 NOSIG

시각: 23:53 (02:53 UTC)

예보

예보는 4 시간 16분 전, 22:37시(UTC)에 발표되었습니다.
예보 대상 시간: 13일 00시부터 14일 00시까지 (UTC)
서북서12kt
시정: 9000m
고도 4000ft 상공 구름 조금
고도 7500ft 상공 구름 많음
약한소나기, 약한비
일시적
13일 03시부터 13일 13시까지 (UTC)
시정: 6000m
고도 3000ft 상공 구름 보통
고도 5000ft 상공 구름 많음
약한비
전환 중
13일 09시부터 13일 11시까지 (UTC)
남서12kt
전환 중
13일 13시부터 13일 15시까지 (UTC)
고도 4000ft 상공 구름 조금
전환 중
13일 21시부터 13일 23시까지 (UTC)
12kt

TAF: SCCI 122237Z 1300/1400 29012KT 9000 -SHRA -RA FEW040 BKN075 TN08/1309Z TX15/1300Z TEMPO 1303/1313 6000 -RA SCT030 BKN050 BECMG 1309/1311 23012KT BECMG 1313/1315 FEW040 BECMG 1321/1323 27012KT

4,000개 이상의 공항 관측 자료 및 예보 (METAR 및 TAF 보고).

지도상에서 검색 가능한 기상관측소가 노란 점과 빨간 점으로 표시되어 있습니다.

기상관측소 명을 보려면 표시 위로 마우스를 이동하세요.

날씨 관측과 예보를 보려면 클릭하세요.

지도 변경 : 확대하려면 엑스 표시가 있는 녹색 버튼, 축소하려면 빼기 표시가 있는 녹색 버튼, 다음 페이지의 지도를 보려면 녹색 화살표를 클릭하세요.


METAR-TAF: